Time;durP1;ratioP1;P1;durP2;ratioP2;P2;SDS_P1;SDS_P2;PMS_P1;PMS_P2;Temp;Humidity;BMP_temperature;BMP_pressure;BME280_temperature;BME280_humidity;BME280_pressure;Samples;Min_cycle;Max_cycle;Signal;HPM_P1;HPM_P2
2022/05/04 00:00:00;;;;;;;18.35;16.15;;;15.80;61.20;;;;;;4951623;29;20040;-74
2022/05/04 00:02:26;;;;;;;17.88;15.25;;;15.70;61.00;;;;;;4951910;29;20056;-74
2022/05/04 00:04:52;;;;;;;15.95;13.80;;;15.70;61.10;;;;;;4940188;28;20072;-74
2022/05/04 00:07:18;;;;;;;17.48;14.77;;;15.70;61.10;;;;;;4931798;29;20032;-74
2022/05/04 00:09:44;;;;;;;15.50;13.60;;;15.70;61.20;;;;;;4936333;29;20055;-74
2022/05/04 00:12:10;;;;;;;16.38;13.98;;;15.60;61.10;;;;;;4930972;29;20032;-75
2022/05/04 00:14:36;;;;;;;15.30;13.68;;;15.60;61.10;;;;;;4928139;29;20088;-75
2022/05/04 00:17:04;;;;;;;16.38;13.38;;;15.60;61.10;;;;;;4927934;29;20043;-74
2022/05/04 00:19:29;;;;;;;17.23;14.80;;;15.60;61.20;;;;;;4909477;29;20039;-74
2022/05/04 00:21:55;;;;;;;15.32;13.70;;;15.60;61.20;;;;;;4929698;29;20039;-75
2022/05/04 00:24:21;;;;;;;15.45;13.80;;;15.50;61.10;;;;;;4934718;28;20031;-74
2022/05/04 00:26:47;;;;;;;15.43;13.80;;;15.50;61.20;;;;;;4929147;29;20379;-75
2022/05/04 00:29:13;;;;;;;14.45;12.90;;;15.50;61.20;;;;;;4929015;29;20055;-74
2022/05/04 00:31:39;;;;;;;14.02;12.35;;;15.50;61.30;;;;;;4928758;29;20058;-75
2022/05/04 00:34:05;;;;;;;13.52;12.13;;;15.40;61.70;;;;;;4929089;29;20041;-75
2022/05/04 00:36:33;;;;;;;14.43;12.93;;;15.40;61.20;;;;;;4928432;29;20024;-76
2022/05/04 00:38:59;;;;;;;12.38;11.18;;;15.40;61.20;;;;;;4931299;29;20043;-75
2022/05/04 00:41:25;;;;;;;13.02;11.73;;;15.40;61.20;;;;;;4928567;29;20284;-74
2022/05/04 00:43:52;;;;;;;13.90;11.90;;;15.50;61.40;;;;;;4926629;29;20395;-74
2022/05/04 00:46:18;;;;;;;17.50;12.15;;;15.40;61.20;;;;;;4914508;29;20131;-74
2022/05/04 00:48:44;;;;;;;12.13;10.48;;;15.40;61.20;;;;;;4928938;29;20469;-74
2022/05/04 00:51:10;;;;;;;13.38;11.98;;;15.40;61.30;;;;;;4929341;29;20059;-75
2022/05/04 00:53:37;;;;;;;13.20;11.80;;;15.30;61.20;;;;;;4924733;29;20393;-74
2022/05/04 00:56:04;;;;;;;13.38;11.93;;;15.30;61.20;;;;;;4926315;29;20027;-74
2022/05/04 01:01:17;;;;;;;12.88;11.60;;;15.30;61.40;;;;;;4929237;29;20036;-75
2022/05/04 01:03:43;;;;;;;12.55;11.25;;;15.30;61.40;;;;;;4932006;29;20065;-74
2022/05/04 01:06:09;;;;;;;12.55;11.27;;;15.20;61.30;;;;;;4930305;29;20451;-74
2022/05/04 01:08:35;;;;;;;11.88;10.52;;;15.20;61.30;;;;;;4933296;29;20418;-74
2022/05/04 01:11:01;;;;;;;14.35;12.77;;;15.20;61.40;;;;;;4932654;29;20031;-74
2022/05/04 01:13:27;;;;;;;12.63;11.23;;;15.20;61.50;;;;;;4932362;29;20554;-75
2022/05/04 01:15:53;;;;;;;13.30;11.90;;;15.10;61.40;;;;;;4931749;29;20060;-74
2022/05/04 01:18:19;;;;;;;13.18;11.82;;;15.10;61.40;;;;;;4934126;29;20438;-75
2022/05/04 01:20:45;;;;;;;12.88;11.57;;;15.10;61.50;;;;;;4930765;29;20032;-74
2022/05/04 01:23:11;;;;;;;13.27;11.88;;;15.10;61.50;;;;;;4931861;29;20028;-75
2022/05/04 01:25:37;;;;;;;12.55;11.25;;;15.00;61.40;;;;;;4924102;29;20039;-74
2022/05/04 01:28:05;;;;;;;12.65;11.45;;;15.00;61.50;;;;;;4929599;29;20078;-73
2022/05/04 01:30:32;;;;;;;13.38;11.98;;;15.00;61.60;;;;;;4930914;29;20032;-74
2022/05/04 01:32:59;;;;;;;13.35;12.05;;;14.90;61.50;;;;;;4931567;29;20039;-75
2022/05/04 01:35:26;;;;;;;14.85;13.35;;;14.90;61.50;;;;;;4930445;29;20059;-74
2022/05/04 01:37:52;;;;;;;12.77;11.52;;;14.90;61.60;;;;;;4928545;29;20032;-74
2022/05/04 01:40:18;;;;;;;13.95;12.52;;;14.90;61.60;;;;;;4930558;29;20088;-73
2022/05/04 01:42:44;;;;;;;13.80;12.40;;;14.90;61.70;;;;;;4917285;29;20069;-74
2022/05/04 01:45:10;;;;;;;13.73;12.32;;;14.90;61.80;;;;;;4925642;29;20112;-76
2022/05/04 01:47:37;;;;;;;13.38;12.07;;;14.80;61.60;;;;;;4934653;29;20377;-75
2022/05/04 01:50:04;;;;;;;12.98;11.40;;;14.80;61.70;;;;;;4952321;29;20034;-76
2022/05/04 01:52:30;;;;;;;14.75;13.25;;;14.80;61.70;;;;;;4956492;29;20043;-75
2022/05/04 01:54:58;;;;;;;13.68;12.30;;;14.80;61.70;;;;;;4956911;29;20043;-75
2022/05/04 01:57:24;;;;;;;14.38;12.98;;;14.80;61.80;;;;;;4944939;29;20056;-74
2022/05/04 01:59:50;;;;;;;14.68;13.30;;;14.90;62.00;;;;;;4955764;29;20019;-74
2022/05/04 02:02:16;;;;;;;15.15;13.68;;;14.90;62.00;;;;;;4955693;29;20071;-75
2022/05/04 02:04:42;;;;;;;13.35;11.93;;;14.80;61.80;;;;;;4945048;29;20040;-75
2022/05/04 02:07:09;;;;;;;15.73;14.13;;;14.90;62.10;;;;;;4931735;29;20237;-75
2022/05/04 02:09:36;;;;;;;14.00;12.43;;;14.80;61.90;;;;;;4933885;29;20031;-74
2022/05/04 02:12:03;;;;;;;14.35;12.95;;;14.90;62.10;;;;;;4932310;29;20039;-75
2022/05/04 02:14:31;;;;;;;13.88;12.57;;;14.90;62.10;;;;;;4921602;29;20038;-74
2022/05/04 02:16:58;;;;;;;14.73;13.13;;;14.90;62.10;;;;;;4946284;29;20187;-74
2022/05/04 02:19:24;;;;;;;15.70;14.15;;;14.90;62.10;;;;;;4912614;29;20032;-74
2022/05/04 02:21:50;;;;;;;15.27;13.68;;;14.90;62.10;;;;;;4914747;29;20036;-74
2022/05/04 02:24:16;;;;;;;16.55;14.85;;;14.90;62.20;;;;;;4939122;29;20031;-74
2022/05/04 02:26:42;;;;;;;16.17;14.48;;;14.90;62.20;;;;;;4930717;29;20115;-74
2022/05/04 02:29:08;;;;;;;18.50;16.52;;;14.90;62.20;;;;;;4931880;29;20628;-75
2022/05/04 02:31:34;;;;;;;18.50;16.10;;;14.90;62.20;;;;;;4931420;29;20028;-75
2022/05/04 02:34:00;;;;;;;17.35;15.65;;;14.90;62.30;;;;;;4932328;29;20121;-75
2022/05/04 02:39:10;;;;;;;18.88;16.15;;;14.90;62.30;;;;;;4932933;29;20138;-74
2022/05/04 02:41:36;;;;;;;19.35;17.35;;;14.90;62.30;;;;;;4929410;29;20039;-75
2022/05/04 02:44:02;;;;;;;19.98;17.52;;;14.90;62.30;;;;;;4933033;29;20043;-75
2022/05/04 02:46:30;;;;;;;20.13;17.85;;;14.90;62.30;;;;;;4931350;29;20039;-75
2022/05/04 02:48:56;;;;;;;20.70;18.33;;;14.90;62.30;;;;;;4928409;29;20437;-74
2022/05/04 02:51:22;;;;;;;19.42;17.42;;;14.90;62.40;;;;;;4930483;29;20432;-72
2022/05/04 02:53:48;;;;;;;21.33;19.05;;;14.80;62.20;;;;;;4932172;29;20305;-73
2022/05/04 02:56:15;;;;;;;19.58;17.60;;;14.80;62.20;;;;;;4931925;29;20051;-75
2022/05/04 02:58:45;;;;;;;21.02;18.88;;;14.80;62.30;;;;;;4930975;29;20138;-74
2022/05/04 03:04:08;;;;;;;20.15;17.27;;;14.80;62.40;;;;;;4933024;29;20660;-74
2022/05/04 03:06:36;;;;;;;19.05;17.02;;;14.80;62.30;;;;;;4923462;29;20032;-75
2022/05/04 03:09:03;;;;;;;17.63;15.82;;;14.80;62.40;;;;;;4915289;29;20058;-75
2022/05/04 03:14:13;;;;;;;16.45;14.73;;;14.80;62.90;;;;;;4931718;29;20468;-75
2022/05/04 03:16:39;;;;;;;17.63;15.85;;;14.70;62.20;;;;;;4931157;29;20036;-75
2022/05/04 03:19:06;;;;;;;17.60;15.85;;;14.70;62.30;;;;;;4931764;29;20058;-75
2022/05/04 03:21:33;;;;;;;16.83;15.05;;;14.70;62.30;;;;;;4934199;29;20167;-75
2022/05/04 03:23:59;;;;;;;15.45;13.73;;;14.70;62.30;;;;;;4933820;29;20066;-74
2022/05/04 03:26:25;;;;;;;15.10;13.55;;;14.70;62.40;;;;;;4937983;28;20032;-75
2022/05/04 03:28:52;;;;;;;15.27;13.70;;;14.70;62.40;;;;;;4927042;29;20717;-75
2022/05/04 03:31:18;;;;;;;16.02;14.32;;;14.70;62.40;;;;;;4912269;29;20059;-75
2022/05/04 03:33:45;;;;;;;14.32;12.88;;;14.70;62.40;;;;;;4929863;29;20036;-75
2022/05/04 03:36:11;;;;;;;16.45;13.23;;;14.70;62.40;;;;;;4930950;29;20036;-75
2022/05/04 03:38:37;;;;;;;15.90;14.20;;;14.70;62.40;;;;;;4929142;29;20043;-75
2022/05/04 03:41:04;;;;;;;13.50;12.10;;;14.70;62.50;;;;;;4930633;29;20038;-74
2022/05/04 03:43:30;;;;;;;13.07;11.77;;;14.70;62.50;;;;;;4931395;29;20040;-75
2022/05/04 03:46:10;;;;;;;14.27;12.75;;;14.70;62.50;;;;;;4931110;29;20123;-75
2022/05/04 03:48:36;;;;;;;13.23;11.80;;;14.60;62.30;;;;;;4929463;29;20048;-75
2022/05/04 03:51:02;;;;;;;13.63;12.32;;;14.70;62.50;;;;;;4928376;29;20592;-74
2022/05/04 03:53:28;;;;;;;14.82;13.40;;;14.70;62.50;;;;;;4924675;29;20031;-75
2022/05/04 03:55:53;;;;;;;13.63;12.27;;;14.70;62.50;;;;;;4928660;29;20064;-74
2022/05/04 03:58:19;;;;;;;14.50;13.02;;;14.70;62.50;;;;;;4935415;29;20047;-74
2022/05/04 04:00:45;;;;;;;13.65;12.23;;;14.70;62.50;;;;;;4938897;29;20051;-74
2022/05/04 04:03:11;;;;;;;15.43;13.82;;;14.70;62.50;;;;;;4954252;29;20101;-74
2022/05/04 04:05:37;;;;;;;15.05;13.55;;;14.70;62.50;;;;;;4954910;28;20032;-75
2022/05/04 04:08:03;;;;;;;13.07;11.73;;;14.70;62.60;;;;;;4953263;28;20036;-75
2022/05/04 04:10:29;;;;;;;12.77;11.50;;;14.70;62.60;;;;;;4953519;29;20028;-75
2022/05/04 04:12:55;;;;;;;13.60;12.20;;;14.70;62.50;;;;;;4933897;29;20040;-76
2022/05/04 04:15:20;;;;;;;13.95;12.57;;;14.70;62.50;;;;;;4931085;29;20035;-75
2022/05/04 04:17:47;;;;;;;14.48;12.23;;;14.70;62.50;;;;;;4906456;29;20054;-75
2022/05/04 04:22:58;;;;;;;12.68;11.38;;;14.70;63.10;;;;;;4932616;29;20031;-75
2022/05/04 04:25:24;;;;;;;12.35;11.15;;;14.70;62.60;;;;;;4926148;29;20025;-75
2022/05/04 04:27:49;;;;;;;12.60;10.75;;;14.70;62.60;;;;;;4920019;29;20126;-75
2022/05/04 04:30:15;;;;;;;11.82;10.48;;;14.70;62.60;;;;;;4932755;29;20674;-76
2022/05/04 04:32:41;;;;;;;11.40;10.35;;;14.70;62.60;;;;;;4935688;29;20046;-75
2022/05/04 04:35:08;;;;;;;11.38;10.18;;;14.70;62.60;;;;;;4935542;29;20111;-74
2022/05/04 04:37:34;;;;;;;10.43;9.18;;;14.70;62.70;;;;;;4932713;29;20046;-74
2022/05/04 04:39:59;;;;;;;10.45;9.27;;;14.70;62.70;;;;;;4934310;29;20035;-76
2022/05/04 04:42:25;;;;;;;10.50;9.50;;;14.70;62.80;;;;;;4934458;29;20032;-75
2022/05/04 04:44:51;;;;;;;10.07;9.07;;;14.70;62.80;;;;;;4933578;29;20031;-74
2022/05/04 04:47:17;;;;;;;9.40;8.50;;;14.70;62.80;;;;;;4933571;29;20059;-74
2022/05/04 04:49:43;;;;;;;11.88;10.35;;;14.70;62.80;;;;;;4926390;29;20035;-74
2022/05/04 04:52:08;;;;;;;9.85;9.02;;;14.70;62.80;;;;;;4927840;29;20547;-74
2022/05/04 04:54:34;;;;;;;10.48;9.43;;;14.70;62.90;;;;;;4932676;29;20460;-74
2022/05/04 04:57:00;;;;;;;9.20;8.32;;;14.70;62.90;;;;;;4922515;29;20032;-77
2022/05/04 04:59:26;;;;;;;7.97;7.13;;;14.70;62.90;;;;;;4927537;29;20108;-77
2022/05/04 05:01:52;;;;;;;8.75;7.95;;;14.70;62.90;;;;;;4926234;29;20060;-78
2022/05/04 05:04:18;;;;;;;8.55;7.65;;;14.70;62.90;;;;;;4925335;29;20605;-79
2022/05/04 05:06:44;;;;;;;8.32;7.53;;;14.70;62.90;;;;;;4929255;29;20042;-78
2022/05/04 05:09:10;;;;;;;8.77;7.50;;;14.70;62.90;;;;;;4930044;29;20642;-77
2022/05/04 05:11:35;;;;;;;8.38;7.57;;;14.70;62.90;;;;;;4919648;29;20031;-77
2022/05/04 05:16:46;;;;;;;7.75;6.95;;;14.70;62.90;;;;;;4919515;29;20036;-77
2022/05/04 05:19:12;;;;;;;8.43;7.65;;;14.80;63.10;;;;;;4924498;29;20043;-76
2022/05/04 05:21:38;;;;;;;7.50;6.75;;;14.80;63.10;;;;;;4925933;29;20487;-76
2022/05/04 05:24:04;;;;;;;7.60;6.90;;;14.80;63.10;;;;;;4923387;29;20574;-75
2022/05/04 05:26:30;;;;;;;7.68;6.70;;;14.80;63.10;;;;;;4929257;29;20036;-76
2022/05/04 05:28:56;;;;;;;7.25;6.53;;;14.80;63.10;;;;;;4923533;29;20035;-76
2022/05/04 05:31:25;;;;;;;7.20;6.47;;;14.80;63.10;;;;;;4928042;29;20046;-76
2022/05/04 05:33:51;;;;;;;8.27;7.43;;;14.80;63.20;;;;;;4924597;29;20555;-76
2022/05/04 05:36:17;;;;;;;8.20;7.40;;;14.80;63.20;;;;;;4929828;29;20331;-78
2022/05/04 05:38:43;;;;;;;7.65;6.95;;;14.80;63.20;;;;;;4922630;29;20611;-81
2022/05/04 05:41:09;;;;;;;8.85;8.05;;;14.80;63.20;;;;;;4929470;29;20031;-78
2022/05/04 05:43:35;;;;;;;7.95;7.15;;;14.80;63.20;;;;;;4924799;29;20046;-77
2022/05/04 05:46:02;;;;;;;9.80;8.90;;;14.80;63.20;;;;;;4913444;29;20703;-77
2022/05/04 05:48:30;;;;;;;10.82;9.40;;;14.80;63.20;;;;;;4929524;29;20844;-77
2022/05/04 05:50:56;;;;;;;11.05;9.98;;;14.90;63.40;;;;;;4919014;29;20032;-78
2022/05/04 05:53:22;;;;;;;9.70;8.80;;;14.80;63.20;;;;;;4932408;29;20060;-76
2022/05/04 05:55:49;;;;;;;11.38;9.93;;;14.80;63.30;;;;;;4924688;29;20024;-78
2022/05/04 05:58:15;;;;;;;9.95;8.95;;;14.70;63.30;;;;;;4915850;29;20036;-76
2022/05/04 06:00:41;;;;;;;11.55;10.35;;;14.70;63.40;;;;;;4929652;29;20210;-80
2022/05/04 06:03:07;;;;;;;11.75;10.55;;;14.60;63.30;;;;;;4929659;29;20074;-75
2022/05/04 06:05:33;;;;;;;11.63;10.43;;;14.60;63.40;;;;;;4931669;29;20511;-74
2022/05/04 06:07:58;;;;;;;10.60;9.60;;;14.60;63.50;;;;;;4929913;29;20041;-74
2022/05/04 06:10:24;;;;;;;11.07;9.80;;;14.60;63.60;;;;;;4927213;29;20086;-74
2022/05/04 06:12:50;;;;;;;10.65;9.57;;;14.70;63.80;;;;;;4932971;29;20034;-78
2022/05/04 06:15:16;;;;;;;11.30;10.20;;;14.70;63.80;;;;;;4909876;29;20036;-76
2022/05/04 06:17:42;;;;;;;10.63;9.63;;;14.70;63.80;;;;;;4931750;29;20554;-75
2022/05/04 06:20:08;;;;;;;11.15;10.05;;;14.80;64.00;;;;;;4929925;29;20518;-74
2022/05/04 06:22:34;;;;;;;10.63;9.52;;;14.80;64.00;;;;;;4932081;29;20046;-76
2022/05/04 06:25:00;;;;;;;12.00;10.38;;;14.90;64.20;;;;;;4927979;29;20411;-77
2022/05/04 06:27:29;;;;;;;10.30;9.35;;;14.90;64.10;;;;;;4926824;29;20382;-76
2022/05/04 06:35:24;;;;;;;10.95;8.68;;;15.10;64.30;;;;;;4927461;29;20032;-74
2022/05/04 06:37:51;;;;;;;9.85;8.15;;;15.10;64.30;;;;;;4927474;29;20543;-76
2022/05/04 06:40:17;;;;;;;8.52;7.60;;;15.20;64.40;;;;;;4928041;29;20130;-76
2022/05/04 06:42:43;;;;;;;10.27;8.65;;;15.20;64.90;;;;;;4928385;29;20209;-77
2022/05/04 06:45:09;;;;;;;8.68;7.90;;;15.20;64.30;;;;;;4932544;29;20067;-79
2022/05/04 06:47:35;;;;;;;8.30;7.50;;;15.30;64.40;;;;;;4930613;29;20060;-78
2022/05/04 06:50:03;;;;;;;8.32;7.53;;;15.30;64.40;;;;;;4928045;29;20412;-76
2022/05/04 06:52:33;;;;;;;8.63;7.82;;;15.30;64.40;;;;;;4923201;29;20138;-77
2022/05/04 06:54:59;;;;;;;14.38;9.05;;;15.30;64.40;;;;;;4925800;29;20119;-78
2022/05/04 06:57:30;;;;;;;7.95;6.95;;;15.40;64.60;;;;;;4928380;29;20137;-78
2022/05/04 06:59:57;;;;;;;10.05;7.32;;;15.40;64.60;;;;;;4927380;29;20035;-77
2022/05/04 07:02:23;;;;;;;7.40;6.70;;;15.30;64.40;;;;;;4917086;29;20512;-76
2022/05/04 07:04:49;;;;;;;9.02;8.10;;;15.40;64.70;;;;;;4928754;29;20220;-76
2022/05/04 07:07:15;;;;;;;8.90;7.95;;;15.40;64.70;;;;;;4930869;29;20032;-76
2022/05/04 07:09:41;;;;;;;8.68;7.78;;;15.40;64.60;;;;;;4925347;29;20483;-78
2022/05/04 07:12:07;;;;;;;9.20;7.00;;;15.50;64.80;;;;;;4928437;29;20051;-74
2022/05/04 07:14:33;;;;;;;9.00;7.25;;;15.50;64.70;;;;;;4926369;29;20122;-76
2022/05/04 07:16:59;;;;;;;8.57;7.78;;;15.50;64.70;;;;;;4927663;29;20126;-76
2022/05/04 07:19:25;;;;;;;10.23;7.75;;;15.50;64.70;;;;;;4924023;29;20079;-75
2022/05/04 07:21:51;;;;;;;8.20;7.15;;;15.50;64.70;;;;;;4933994;29;20044;-74
2022/05/04 07:24:18;;;;;;;8.30;7.35;;;15.50;64.70;;;;;;4918100;29;20044;-75
2022/05/04 07:26:44;;;;;;;7.63;6.93;;;15.60;64.80;;;;;;4922020;29;20083;-75
2022/05/04 07:29:10;;;;;;;9.45;8.25;;;15.60;64.70;;;;;;4932687;29;20146;-75
2022/05/04 07:31:37;;;;;;;8.35;7.57;;;15.70;64.80;;;;;;4928016;29;20035;-74
2022/05/04 07:34:03;;;;;;;6.97;6.28;;;15.70;64.70;;;;;;4928811;29;20486;-75
2022/05/04 07:36:29;;;;;;;9.80;6.90;;;15.80;64.70;;;;;;4928728;29;20031;-75
2022/05/04 07:38:55;;;;;;;6.85;6.20;;;15.80;64.60;;;;;;4927405;29;20032;-79
2022/05/04 07:44:06;;;;;;;7.13;6.45;;;15.80;64.40;;;;;;4919452;29;20036;-78
2022/05/04 07:46:33;;;;;;;6.70;5.95;;;15.80;64.30;;;;;;4913081;29;20068;-78
2022/05/04 07:49:00;;;;;;;6.10;5.53;;;15.80;64.30;;;;;;4926011;29;20031;-78
2022/05/04 07:51:25;;;;;;;7.45;6.47;;;15.80;64.30;;;;;;4918713;29;20122;-78
2022/05/04 07:53:51;;;;;;;7.28;6.68;;;15.80;64.30;;;;;;4928261;29;20118;-77
2022/05/04 07:56:17;;;;;;;7.35;6.65;;;15.70;64.20;;;;;;4929007;29;20239;-77
2022/05/04 07:58:43;;;;;;;7.38;6.13;;;15.70;64.30;;;;;;4928011;29;20070;-77
2022/05/04 08:06:38;;;;;;;7.55;6.88;;;15.70;64.40;;;;;;4959289;29;20031;-75
2022/05/04 08:09:04;;;;;;;6.88;6.28;;;15.60;64.20;;;;;;4957340;28;20051;-76
2022/05/04 08:11:30;;;;;;;6.60;6.00;;;15.70;64.40;;;;;;4957940;29;20039;-78
2022/05/04 08:13:56;;;;;;;6.85;6.25;;;15.60;64.20;;;;;;4949893;29;20056;-76
2022/05/04 08:16:22;;;;;;;7.75;7.05;;;15.60;64.20;;;;;;4939258;29;20039;-75
2022/05/04 08:18:48;;;;;;;6.47;5.88;;;15.60;64.20;;;;;;4929513;29;20472;-75
2022/05/04 08:21:14;;;;;;;7.45;6.25;;;15.60;64.30;;;;;;4936052;29;20043;-81
2022/05/04 08:23:40;;;;;;;8.15;7.03;;;15.60;64.30;;;;;;4936985;29;20075;-75
2022/05/04 08:26:06;;;;;;;6.13;5.57;;;15.50;64.20;;;;;;4930440;29;20066;-75
2022/05/04 08:28:32;;;;;;;6.40;5.80;;;15.50;64.30;;;;;;4932795;29;20031;-75
2022/05/04 08:30:58;;;;;;;6.80;5.95;;;15.50;64.40;;;;;;4918386;29;20043;-75
2022/05/04 08:33:24;;;;;;;9.20;6.30;;;15.50;64.50;;;;;;4920886;29;20047;-75
2022/05/04 08:35:50;;;;;;;6.53;5.88;;;15.50;64.40;;;;;;4934017;29;20032;-76
2022/05/04 08:38:16;;;;;;;6.20;5.70;;;15.60;64.50;;;;;;4934753;29;20545;-76
2022/05/04 08:40:42;;;;;;;8.07;6.22;;;15.80;64.60;;;;;;4930304;29;20042;-76
2022/05/04 08:43:09;;;;;;;6.45;5.88;;;15.90;64.50;;;;;;4927856;29;20071;-75
2022/05/04 08:45:37;;;;;;;7.65;6.07;;;16.00;64.40;;;;;;4934231;29;20107;-76
2022/05/04 08:48:05;;;;;;;6.57;5.90;;;16.00;64.30;;;;;;4923789;29;20080;-76
2022/05/04 08:50:33;;;;;;;8.85;6.13;;;16.10;64.40;;;;;;4933808;29;20099;-75
2022/05/04 08:53:01;;;;;;;6.70;6.05;;;16.20;64.50;;;;;;4935099;29;20074;-75
2022/05/04 08:55:28;;;;;;;7.40;6.70;;;16.40;64.70;;;;;;4924488;29;20050;-76
2022/05/04 08:57:54;;;;;;;7.15;6.45;;;16.70;64.60;;;;;;4926182;28;20144;-76
2022/05/04 09:00:21;;;;;;;6.70;6.10;;;17.10;64.50;;;;;;4927320;29;20352;-75
2022/05/04 09:02:47;;;;;;;9.38;6.20;;;17.50;64.20;;;;;;4929457;29;20035;-76
2022/05/04 09:05:15;;;;;;;6.38;5.78;;;17.90;63.90;;;;;;4933123;29;20031;-75
2022/05/04 09:07:41;;;;;;;7.45;5.03;;;18.00;63.30;;;;;;4930065;29;20063;-77
2022/05/04 09:10:14;;;;;;;5.82;4.97;;;18.10;63.10;;;;;;4927463;29;20035;-77
2022/05/04 09:12:45;;;;;;;6.78;5.95;;;18.10;63.00;;;;;;4928914;29;20071;-77
2022/05/04 09:15:22;;;;;;;5.22;4.72;;;18.10;63.00;;;;;;4924739;29;20042;-78
2022/05/04 09:17:58;;;;;;;8.68;5.75;;;18.00;62.90;;;;;;4952630;29;20066;-76
2022/05/04 09:20:48;;;;;;;6.18;4.10;;;17.90;62.90;;;;;;4948395;29;20015;-76
2022/05/04 09:23:21;;;;;;;7.38;4.85;;;17.90;63.60;;;;;;4958716;29;20019;-77
2022/05/04 09:25:55;;;;;;;4.93;3.97;;;18.00;63.00;;;;;;4953675;29;20051;-75
2022/05/04 09:28:24;;;;;;;3.70;3.40;;;18.30;63.00;;;;;;4952136;29;20062;-76
2022/05/04 09:30:52;;;;;;;3.45;3.15;;;18.50;62.60;;;;;;4951638;28;20044;-76
2022/05/04 09:33:19;;;;;;;3.63;3.22;;;18.70;62.40;;;;;;4955062;29;20066;-79
2022/05/04 09:35:46;;;;;;;2.63;2.42;;;19.00;62.30;;;;;;4943101;29;20032;-75
2022/05/04 09:46:44;;;;;;;5.22;2.28;;;19.70;61.20;;;;;;4929457;29;20131;-77
2022/05/04 09:49:14;;;;;;;2.45;1.83;;;19.80;60.80;;;;;;4921569;29;20068;-81
2022/05/04 09:51:51;;;;;;;4.32;2.28;;;19.80;60.60;;;;;;4918938;29;20103;-80
2022/05/04 09:54:22;;;;;;;3.80;1.80;;;19.70;60.30;;;;;;4931560;29;20087;-77
2022/05/04 09:57:00;;;;;;;4.35;2.17;;;19.60;60.20;;;;;;4930983;29;20059;-77
2022/05/04 09:59:30;;;;;;;3.03;1.60;;;19.50;60.20;;;;;;4928415;29;20047;-79
2022/05/04 10:01:59;;;;;;;2.85;1.60;;;19.30;60.20;;;;;;4931043;29;20032;-76
2022/05/04 10:04:27;;;;;;;2.45;1.83;;;19.20;60.20;;;;;;4931097;29;20031;-83
2022/05/04 10:06:54;;;;;;;3.17;1.60;;;19.10;60.00;;;;;;4932340;29;20028;-79
2022/05/04 10:09:22;;;;;;;4.63;2.13;;;19.00;59.90;;;;;;4929213;29;20043;-76
2022/05/04 10:11:57;;;;;;;1.88;1.40;;;19.10;60.10;;;;;;4926238;29;20411;-78
2022/05/04 10:14:28;;;;;;;2.70;1.40;;;19.10;60.00;;;;;;4926131;29;20040;-78
2022/05/04 10:17:20;;;;;;;1.48;1.38;;;19.30;59.80;;;;;;4914168;29;20096;-78
2022/05/04 10:20:05;;;;;;;4.32;2.00;;;19.50;59.70;;;;;;4918338;29;20123;-78
2022/05/04 10:22:51;;;;;;;2.05;1.33;;;19.60;59.50;;;;;;4931282;29;20032;-77
2022/05/04 10:25:17;;;;;;;4.40;1.33;;;19.70;59.20;;;;;;4929370;29;20047;-77
2022/05/04 10:27:46;;;;;;;1.88;1.00;;;19.70;59.30;;;;;;4928468;29;20094;-79
2022/05/04 10:30:30;;;;;;;4.90;1.55;;;19.70;59.10;;;;;;4930454;29;20031;-76
2022/05/04 10:33:01;;;;;;;11.02;1.90;;;19.70;59.10;;;;;;4928093;29;20055;-76
2022/05/04 10:35:42;;;;;;;3.58;1.30;;;19.60;58.90;;;;;;4929262;29;20039;-76
2022/05/04 10:38:38;;;;;;;2.20;1.42;;;19.60;58.90;;;;;;4918755;29;20047;-82
2022/05/04 10:41:06;;;;;;;15.35;2.17;;;19.60;58.70;;;;;;4928269;29;20023;-79
2022/05/04 10:43:51;;;;;;;2.28;1.10;;;19.70;58.70;;;;;;4928739;29;20492;-78
2022/05/04 10:46:20;;;;;;;2.33;1.15;;;19.80;58.40;;;;;;4922178;29;20134;-78
2022/05/04 10:49:02;;;;;;;2.90;1.42;;;19.90;58.40;;;;;;4928678;29;20056;-77
2022/05/04 10:51:31;;;;;;;3.17;1.80;;;20.10;58.10;;;;;;4918352;29;20047;-75
2022/05/04 10:54:03;;;;;;;5.10;1.88;;;20.20;58.10;;;;;;4929200;29;20122;-77
2022/05/04 10:56:45;;;;;;;3.58;1.80;;;20.30;57.70;;;;;;4923429;29;20054;-77
2022/05/04 10:59:22;;;;;;;2.55;1.98;;;20.50;57.70;;;;;;4920115;29;20047;-77
2022/05/04 11:01:48;;;;;;;2.97;1.80;;;20.80;57.70;;;;;;4919486;29;20036;-78
2022/05/04 11:04:34;;;;;;;2.35;1.90;;;20.90;57.30;;;;;;4934969;29;20042;-78
2022/05/04 11:07:08;;;;;;;3.47;2.42;;;21.00;57.00;;;;;;4920709;29;20040;-77
2022/05/04 11:09:39;;;;;;;3.67;2.85;;;21.20;57.00;;;;;;4920760;29;20047;-78
2022/05/04 11:12:07;;;;;;;5.55;3.03;;;21.40;57.00;;;;;;4936079;29;20054;-81
2022/05/04 11:14:36;;;;;;;4.60;3.20;;;21.60;56.90;;;;;;4934941;29;20646;-80
2022/05/04 11:17:10;;;;;;;5.25;2.22;;;21.70;56.70;;;;;;4932848;29;20032;-80
2022/05/04 11:19:45;;;;;;;3.45;2.75;;;21.90;56.60;;;;;;4932397;29;20480;-78
2022/05/04 11:22:11;;;;;;;2.47;2.08;;;22.00;56.40;;;;;;4930409;29;20388;-81
2022/05/04 11:24:37;;;;;;;5.32;1.92;;;22.20;56.50;;;;;;4910412;29;20499;-76
2022/05/04 11:27:04;;;;;;;2.40;2.15;;;22.30;56.40;;;;;;4921826;29;20042;-76
2022/05/04 11:29:30;;;;;;;3.08;2.55;;;22.50;56.40;;;;;;4915794;29;20557;-77
2022/05/04 11:32:03;;;;;;;2.33;2.17;;;22.60;56.30;;;;;;4929548;29;20074;-78
2022/05/04 11:34:32;;;;;;;3.40;2.50;;;22.70;56.00;;;;;;4917912;29;20106;-77
2022/05/04 11:37:03;;;;;;;3.35;2.63;;;22.60;55.70;;;;;;4930363;29;20023;-77
2022/05/04 11:39:29;;;;;;;9.73;2.53;;;22.60;55.70;;;;;;4918723;29;20354;-77
2022/05/04 11:41:57;;;;;;;4.30;3.33;;;22.50;55.70;;;;;;4924376;29;20035;-78
2022/05/04 11:44:25;;;;;;;3.78;2.58;;;22.50;55.70;;;;;;4922821;29;20036;-77
2022/05/04 11:46:53;;;;;;;6.07;3.47;;;22.40;55.60;;;;;;4925413;29;20052;-78
2022/05/04 11:49:25;;;;;;;3.72;2.80;;;22.40;55.40;;;;;;4926623;29;20031;-78
2022/05/04 11:51:52;;;;;;;5.05;2.90;;;22.40;55.30;;;;;;4923149;29;20039;-78
2022/05/04 11:54:21;;;;;;;3.45;3.00;;;22.30;55.20;;;;;;4933595;29;20235;-77
2022/05/04 11:56:47;;;;;;;3.22;2.83;;;22.10;55.00;;;;;;4929699;29;20545;-79
2022/05/04 11:59:13;;;;;;;3.33;3.03;;;22.10;55.20;;;;;;4922771;29;20567;-77
2022/05/04 12:01:41;;;;;;;3.17;2.88;;;22.00;55.10;;;;;;4929242;29;20525;-77
2022/05/04 12:04:10;;;;;;;3.80;3.13;;;22.00;55.10;;;;;;4930799;29;20036;-77
2022/05/04 12:06:37;;;;;;;3.95;3.38;;;21.90;55.00;;;;;;4932262;29;20242;-77
2022/05/04 12:09:04;;;;;;;4.40;3.70;;;21.90;55.00;;;;;;4929216;29;20074;-76
2022/05/04 12:11:31;;;;;;;4.72;4.20;;;21.90;55.00;;;;;;4929862;29;20122;-77
2022/05/04 12:13:58;;;;;;;3.97;3.67;;;21.90;54.80;;;;;;4932309;29;20083;-78
2022/05/04 12:16:24;;;;;;;4.32;3.92;;;21.90;54.70;;;;;;4930666;29;20036;-78
2022/05/04 12:18:51;;;;;;;3.72;3.38;;;22.00;54.80;;;;;;4929218;29;20040;-78
2022/05/04 12:21:22;;;;;;;4.70;3.95;;;22.00;54.60;;;;;;4913883;29;20114;-80
2022/05/04 12:23:53;;;;;;;5.68;3.45;;;22.10;54.40;;;;;;4927005;29;20043;-76
2022/05/04 12:26:20;;;;;;;3.47;3.17;;;22.20;54.50;;;;;;4929701;29;20095;-76
2022/05/04 12:34:16;;;;;;;3.90;3.60;;;22.30;54.20;;;;;;4953376;28;20251;-77
2022/05/04 12:36:46;;;;;;;2.83;2.50;;;22.30;54.20;;;;;;4952744;28;20043;-75
2022/05/04 12:39:14;;;;;;;4.00;3.17;;;22.30;54.10;;;;;;4950478;28;20042;-81
2022/05/04 12:41:45;;;;;;;3.08;2.67;;;22.30;54.00;;;;;;4950203;28;20020;-77
2022/05/04 12:44:14;;;;;;;4.32;3.25;;;22.40;54.00;;;;;;4949559;29;20072;-76
2022/05/04 12:46:40;;;;;;;3.58;2.90;;;22.50;54.00;;;;;;4947741;29;20547;-77
2022/05/04 12:49:06;;;;;;;3.97;2.55;;;22.60;54.10;;;;;;4917326;29;20031;-76
2022/05/04 12:51:35;;;;;;;2.88;2.58;;;22.70;54.00;;;;;;4920892;29;20131;-78
2022/05/04 12:54:02;;;;;;;3.60;2.60;;;22.80;54.00;;;;;;4929109;29;20511;-77
2022/05/04 12:56:46;;;;;;;6.32;2.97;;;22.80;53.80;;;;;;4917296;29;20047;-77
2022/05/04 12:59:16;;;;;;;3.70;3.13;;;22.80;53.80;;;;;;4926179;29;20098;-76
2022/05/04 13:01:42;;;;;;;5.07;3.85;;;22.80;53.80;;;;;;4932874;29;20396;-76
2022/05/04 13:04:08;;;;;;;4.20;3.03;;;22.80;53.70;;;;;;4935368;29;20361;-76
2022/05/04 13:06:34;;;;;;;2.65;2.38;;;22.80;53.80;;;;;;4934971;29;20046;-77
2022/05/04 13:09:00;;;;;;;3.28;2.97;;;22.90;53.80;;;;;;4933445;29;20515;-76
2022/05/04 13:11:26;;;;;;;3.47;2.90;;;23.10;53.90;;;;;;4931376;29;20032;-77
2022/05/04 13:13:52;;;;;;;3.20;2.90;;;23.30;53.80;;;;;;4924406;29;20039;-76
2022/05/04 13:16:18;;;;;;;3.22;2.72;;;23.50;53.80;;;;;;4932361;29;20108;-76
2022/05/04 13:18:44;;;;;;;6.85;3.53;;;23.60;53.80;;;;;;4924526;29;20114;-81
2022/05/04 13:21:11;;;;;;;3.80;3.40;;;23.70;53.80;;;;;;4918909;29;20122;-82
2022/05/04 13:23:37;;;;;;;4.47;3.30;;;23.80;53.80;;;;;;4932131;29;20032;-77